Time;durP1;ratioP1;P1;durP2;ratioP2;P2;SDS_P1;SDS_P2;PMS_P1;PMS_P2;Temp;Humidity;BMP_temperature;BMP_pressure;BME280_temperature;BME280_humidity;BME280_pressure;Samples;Min_cycle;Max_cycle;Signal;HPM_P1;HPM_P2
2022/01/26 00:07:49;;;;;;;;;;;5.90;94.60;;;;;;5030863;28;19951;-76
2022/01/26 00:10:14;;;;;;;;;;;5.90;94.60;;;;;;5030632;28;20302;-76
2022/01/26 00:12:40;;;;;;;;;;;5.90;94.60;;;;;;5030692;28;19995;-76
2022/01/26 00:15:06;;;;;;;;;;;6.00;94.60;;;;;;5030609;28;19913;-76
2022/01/26 00:17:31;;;;;;;;;;;6.00;94.60;;;;;;5030449;28;20418;-75
2022/01/26 00:20:07;;;;;;;;;;;6.10;94.70;;;;;;5030383;28;19913;-75
2022/01/26 00:38:43;;;;;;;;;;;6.60;94.80;;;;;;5021386;28;20385;-75
2022/01/26 00:41:13;;;;;;;;;;;6.70;94.80;;;;;;5030004;28;20003;-75
2022/01/26 00:43:42;;;;;;;;;;;6.70;94.80;;;;;;5028848;28;20303;-75
2022/01/26 00:46:08;;;;;;;;;;;6.80;95.00;;;;;;5029805;28;19912;-76
2022/01/26 00:48:36;;;;;;;;;;;6.90;94.80;;;;;;5028701;28;19921;-76
2022/01/26 00:51:04;;;;;;;;;;;6.90;94.90;;;;;;5030089;28;19997;-76
2022/01/26 00:53:47;;;;;;;;;;;7.00;94.90;;;;;;5029659;28;19921;-76
2022/01/26 00:56:13;;;;;;;;;;;7.00;94.90;;;;;;5028360;28;19909;-76
2022/01/26 00:58:39;;;;;;;;;;;7.00;94.90;;;;;;5029639;28;20550;-76
2022/01/26 01:01:05;;;;;;;;;;;7.00;94.90;;;;;;5029395;28;20007;-75
2022/01/26 01:03:33;;;;;;;;;;;7.10;94.90;;;;;;5029517;28;19912;-76
2022/01/26 01:08:25;;;;;;;;;;;7.10;94.90;;;;;;5029246;28;19974;-76
2022/01/26 01:10:52;;;;;;;;;;;7.20;95.00;;;;;;5029209;28;19917;-77
2022/01/26 01:13:21;;;;;;;;;;;7.20;95.00;;;;;;5027973;28;20268;-76
2022/01/26 01:15:48;;;;;;;;;;;7.20;95.00;;;;;;5027863;28;20271;-75
2022/01/26 01:32:01;;;;;;;;;;;7.40;95.10;;;;;;5007122;28;19917;-76
2022/01/26 01:34:30;;;;;;;;;;;7.40;95.30;;;;;;5006930;28;19974;-77
2022/01/26 01:37:02;;;;;;;;;;;7.40;95.00;;;;;;5018667;28;19955;-76
2022/01/26 01:39:29;;;;;;;;;;;7.50;95.10;;;;;;5029081;28;19991;-76
2022/01/26 01:41:55;;;;;;;;;;;7.50;95.00;;;;;;5027512;28;19905;-76
2022/01/26 01:44:21;;;;;;;;;;;7.50;95.00;;;;;;5028895;28;19924;-76
2022/01/26 01:46:47;;;;;;;;;;;7.50;95.00;;;;;;5027297;28;19917;-76
2022/01/26 01:49:14;;;;;;;;;;;7.50;95.00;;;;;;5027328;28;20264;-75
2022/01/26 01:51:44;;;;;;;;;;;7.60;95.00;;;;;;5028688;28;19909;-76
2022/01/26 01:54:14;;;;;;;;;;;7.60;95.00;;;;;;5028687;28;19912;-75
2022/01/26 01:56:41;;;;;;;;;;;7.70;95.00;;;;;;5028267;28;19954;-76
2022/01/26 01:59:06;;;;;;;;;;;7.70;94.90;;;;;;5028304;28;19935;-76
2022/01/26 02:01:32;;;;;;;;;;;7.80;95.00;;;;;;5010816;28;20296;-75
2022/01/26 02:03:58;;;;;;;;;;;7.80;94.90;;;;;;5027144;28;19955;-76
2022/01/26 02:06:23;;;;;;;;;;;7.80;94.90;;;;;;5027290;28;19916;-76
2022/01/26 02:08:49;;;;;;;;;;;7.80;94.90;;;;;;5027031;28;19957;-75
2022/01/26 02:11:15;;;;;;;;;;;7.80;94.90;;;;;;5027084;28;19909;-75
2022/01/26 02:16:22;;;;;;;;;;;7.80;94.90;;;;;;5027238;28;19924;-76
2022/01/26 03:07:40;;;;;;;;;;;8.00;94.90;;;;;;5023002;28;19936;-75
2022/01/26 03:10:21;;;;;;;;;;;8.00;95.10;;;;;;5027034;28;19913;-76
2022/01/26 03:13:24;;;;;;;;;;;8.00;95.00;;;;;;5030264;28;19905;-76
2022/01/26 03:20:55;;;;;;;;;;;7.90;95.10;;;;;;5031660;28;19913;-76
2022/01/26 03:34:15;;;;;;;;;;;8.00;95.20;;;;;;5031876;28;20334;-76
2022/01/26 03:37:14;;;;;;;;;;;8.00;95.20;;;;;;5031182;28;20418;-75
2022/01/26 03:39:41;;;;;;;;;;;8.00;95.20;;;;;;5029894;28;19912;-76
2022/01/26 03:42:08;;;;;;;;;;;8.00;95.20;;;;;;5029724;28;20193;-75
2022/01/26 03:44:34;;;;;;;;;;;8.00;95.20;;;;;;5031011;28;19986;-77
2022/01/26 03:47:00;;;;;;;;;;;8.00;95.20;;;;;;5029530;28;19963;-76
2022/01/26 03:49:26;;;;;;;;;;;8.00;95.20;;;;;;5030856;28;19909;-76
2022/01/26 03:51:51;;;;;;;;;;;8.00;95.20;;;;;;5029452;28;19917;-75
2022/01/26 03:54:18;;;;;;;;;;;8.00;95.20;;;;;;5030821;28;19909;-75
2022/01/26 03:56:44;;;;;;;;;;;8.00;95.20;;;;;;5030633;28;19924;-76
2022/01/26 03:59:10;;;;;;;;;;;8.00;95.20;;;;;;5030823;28;19908;-76
2022/01/26 04:01:36;;;;;;;;;;;8.00;95.20;;;;;;5029453;28;19995;-75
2022/01/26 04:04:02;;;;;;;;;;;7.90;95.20;;;;;;5030631;28;19920;-77
2022/01/26 04:06:29;;;;;;;;;;;8.00;95.30;;;;;;5029189;28;19909;-76
2022/01/26 04:08:55;;;;;;;;;;;7.90;95.30;;;;;;5029234;28;19909;-77
2022/01/26 04:11:32;;;;;;;;;;;7.90;95.30;;;;;;5030212;28;19917;-76
2022/01/26 04:13:58;;;;;;;;;;;7.90;95.30;;;;;;5029254;28;19919;-76
2022/01/26 04:16:24;;;;;;;;;;;7.90;95.40;;;;;;5030444;28;19909;-76
2022/01/26 04:18:50;;;;;;;;;;;7.90;95.40;;;;;;5030340;28;19954;-77
2022/01/26 04:23:55;;;;;;;;;;;7.90;95.40;;;;;;5028948;28;19909;-77
2022/01/26 04:26:28;;;;;;;;;;;7.90;95.50;;;;;;5013634;28;19959;-77
2022/01/26 04:29:02;;;;;;;;;;;7.90;95.50;;;;;;5029056;28;20379;-75
2022/01/26 04:31:27;;;;;;;;;;;7.90;95.50;;;;;;5030090;28;19913;-76
2022/01/26 04:33:53;;;;;;;;;;;7.90;95.50;;;;;;5030142;28;19996;-76
2022/01/26 04:36:32;;;;;;;;;;;8.00;95.50;;;;;;5030155;28;19916;-76
2022/01/26 04:39:07;;;;;;;;;;;8.00;95.50;;;;;;5029174;28;20020;-77
2022/01/26 04:41:42;;;;;;;;;;;8.00;95.50;;;;;;5030227;28;19921;-77
2022/01/26 04:44:21;;;;;;;;;;;8.00;95.50;;;;;;5013666;28;19913;-75
2022/01/26 04:46:47;;;;;;;;;;;8.00;95.40;;;;;;5029815;28;20287;-76
2022/01/26 04:49:13;;;;;;;;;;;8.00;95.40;;;;;;5030052;28;19912;-76
2022/01/26 04:51:38;;;;;;;;;;;8.10;95.50;;;;;;5029873;28;20340;-77
2022/01/26 04:54:04;;;;;;;;;;;8.00;95.50;;;;;;5029709;28;19916;-77
2022/01/26 04:56:29;;;;;;;;;;;8.00;95.50;;;;;;5028220;28;20394;-76
2022/01/26 04:58:55;;;;;;;;;;;8.00;95.50;;;;;;5028361;28;19909;-76
2022/01/26 05:01:20;;;;;;;;;;;8.00;95.50;;;;;;5029207;28;19928;-77
2022/01/26 05:03:46;;;;;;;;;;;8.00;95.50;;;;;;5029555;28;19990;-75
2022/01/26 05:06:12;;;;;;;;;;;7.90;95.50;;;;;;5029493;28;19913;-76
2022/01/26 05:08:38;;;;;;;;;;;7.90;95.50;;;;;;5029309;28;20007;-76
2022/01/26 05:11:05;;;;;;;;;;;7.80;95.50;;;;;;5029325;28;19940;-76
2022/01/26 05:13:30;;;;;;;;;;;7.70;95.50;;;;;;5029270;28;19912;-75
2022/01/26 05:15:56;;;;;;;;;;;7.60;95.60;;;;;;5027891;28;19913;-75
2022/01/26 05:18:23;;;;;;;;;;;7.60;95.70;;;;;;5027978;28;19959;-74
2022/01/26 05:20:49;;;;;;;;;;;7.50;95.70;;;;;;5011779;28;19913;-76
2022/01/26 05:23:15;;;;;;;;;;;7.50;95.70;;;;;;5028073;28;20016;-75
2022/01/26 05:25:41;;;;;;;;;;;7.40;95.70;;;;;;5011417;28;19910;-76
2022/01/26 05:28:06;;;;;;;;;;;7.40;95.70;;;;;;5029136;28;19956;-75
2022/01/26 05:30:32;;;;;;;;;;;7.40;95.70;;;;;;5027805;28;19909;-75
2022/01/26 05:32:57;;;;;;;;;;;7.30;95.70;;;;;;5028775;28;19913;-74
2022/01/26 05:35:23;;;;;;;;;;;7.30;95.70;;;;;;5027043;28;19905;-75
2022/01/26 05:37:48;;;;;;;;;;;7.30;95.80;;;;;;5027396;28;19967;-75
2022/01/26 05:40:14;;;;;;;;;;;7.30;95.80;;;;;;5027601;28;19909;-76
2022/01/26 05:42:41;;;;;;;;;;;7.30;95.90;;;;;;5028793;28;20363;-76
2022/01/26 05:45:16;;;;;;;;;;;7.30;95.90;;;;;;5028739;28;19947;-75
2022/01/26 05:47:43;;;;;;;;;;;7.30;95.90;;;;;;5028640;28;19951;-75
2022/01/26 05:50:08;;;;;;;;;;;7.40;96.00;;;;;;5027384;28;19940;-75
2022/01/26 05:52:34;;;;;;;;;;;7.40;96.00;;;;;;5027344;28;19979;-76
2022/01/26 05:54:59;;;;;;;;;;;7.40;95.90;;;;;;5028427;28;20271;-76
2022/01/26 05:57:25;;;;;;;;;;;7.50;95.90;;;;;;5028266;28;20003;-75
2022/01/26 05:59:53;;;;;;;;;;;7.50;95.90;;;;;;5027211;28;19912;-76
2022/01/26 06:02:19;;;;;;;;;;;7.60;95.90;;;;;;5027132;28;20267;-76
2022/01/26 06:04:44;;;;;;;;;;;7.60;95.90;;;;;;5028351;28;19909;-77
2022/01/26 06:07:10;;;;;;;;;;;7.60;95.90;;;;;;5027161;28;19909;-76
2022/01/26 06:09:35;;;;;;;;;;;7.70;95.90;;;;;;5028284;28;19972;-75
2022/01/26 06:12:01;;;;;;;;;;;7.70;95.90;;;;;;5028372;28;19960;-76
2022/01/26 06:14:27;;;;;;;;;;;7.80;95.90;;;;;;5028283;28;20425;-75
2022/01/26 06:16:52;;;;;;;;;;;7.80;95.90;;;;;;5027160;28;19920;-75
2022/01/26 06:19:18;;;;;;;;;;;7.80;95.90;;;;;;5026847;28;19909;-76
2022/01/26 06:21:43;;;;;;;;;;;7.80;95.90;;;;;;5028118;28;19909;-77
2022/01/26 06:24:09;;;;;;;;;;;7.80;95.90;;;;;;5010511;28;20322;-76
2022/01/26 06:26:34;;;;;;;;;;;7.80;96.00;;;;;;5028271;28;20359;-76
2022/01/26 06:29:00;;;;;;;;;;;7.80;96.00;;;;;;5028305;28;20245;-77
2022/01/26 06:31:27;;;;;;;;;;;7.80;96.00;;;;;;5027920;28;19915;-75
2022/01/26 06:33:53;;;;;;;;;;;7.80;96.00;;;;;;5026661;28;20355;-75
2022/01/26 06:36:19;;;;;;;;;;;7.70;96.00;;;;;;5010299;28;19928;-76
2022/01/26 06:38:46;;;;;;;;;;;7.70;96.00;;;;;;5028018;28;19909;-75
2022/01/26 06:41:12;;;;;;;;;;;7.70;96.00;;;;;;5026702;28;20383;-76
2022/01/26 06:43:47;;;;;;;;;;;7.60;96.10;;;;;;5028725;28;19909;-76
2022/01/26 06:46:20;;;;;;;;;;;7.60;96.10;;;;;;5030753;28;20558;-76
2022/01/26 06:51:46;;;;;;;;;;;7.60;96.20;;;;;;5009397;28;20088;-76
2022/01/26 06:54:12;;;;;;;;;;;7.50;96.20;;;;;;5026919;28;19909;-75
2022/01/26 06:56:38;;;;;;;;;;;7.60;96.20;;;;;;5031658;28;19913;-75
2022/01/26 06:59:03;;;;;;;;;;;7.60;96.30;;;;;;5013851;28;19909;-75
2022/01/26 07:01:29;;;;;;;;;;;7.50;96.30;;;;;;5029922;28;20282;-75
2022/01/26 07:03:54;;;;;;;;;;;7.60;96.30;;;;;;5031621;28;19909;-76
2022/01/26 07:06:20;;;;;;;;;;;7.60;96.40;;;;;;5013773;28;20344;-75
2022/01/26 07:08:46;;;;;;;;;;;7.60;96.30;;;;;;5031360;28;19909;-74
2022/01/26 07:11:12;;;;;;;;;;;7.60;96.40;;;;;;5030114;28;20323;-76
2022/01/26 07:13:39;;;;;;;;;;;7.70;96.40;;;;;;5030015;28;19916;-75
2022/01/26 07:21:33;;;;;;;;;;;7.70;96.40;;;;;;5030523;28;20120;-76
2022/01/26 07:23:59;;;;;;;;;;;7.70;96.40;;;;;;5030982;28;19909;-75
2022/01/26 07:26:28;;;;;;;;;;;7.80;96.40;;;;;;5029667;28;19998;-75
2022/01/26 07:28:54;;;;;;;;;;;7.80;96.30;;;;;;5029706;28;20302;-75
2022/01/26 07:31:19;;;;;;;;;;;7.80;96.30;;;;;;5031322;28;20192;-76
2022/01/26 07:33:45;;;;;;;;;;;7.80;96.30;;;;;;5030601;28;19928;-64
2022/01/26 07:36:11;;;;;;;;;;;7.80;96.30;;;;;;5029466;28;20339;-75
2022/01/26 07:38:37;;;;;;;;;;;7.80;96.20;;;;;;5029708;28;19963;-76
2022/01/26 07:41:02;;;;;;;;;;;7.70;96.20;;;;;;5030492;28;19971;-76
2022/01/26 07:43:28;;;;;;;;;;;7.70;96.20;;;;;;5029399;28;19916;-75
2022/01/26 07:45:54;;;;;;;;;;;7.70;96.20;;;;;;5028549;28;20012;-75
2022/01/26 07:48:19;;;;;;;;;;;7.70;96.20;;;;;;5028671;28;19917;-76
2022/01/26 07:50:45;;;;;;;;;;;7.70;96.20;;;;;;5028464;28;20020;-76
2022/01/26 07:53:16;;;;;;;;;;;7.70;96.20;;;;;;5028754;28;20481;-76
2022/01/26 07:55:42;;;;;;;;;;;7.70;96.20;;;;;;5029887;28;20011;-75
2022/01/26 07:58:11;;;;;;;;;;;7.60;96.20;;;;;;5027937;28;20000;-76
2022/01/26 08:00:37;;;;;;;;;;;7.60;96.20;;;;;;5011943;28;19996;-75
2022/01/26 08:03:03;;;;;;;;;;;7.60;96.20;;;;;;5030137;28;19916;-75
2022/01/26 08:05:28;;;;;;;;;;;7.60;96.10;;;;;;5028466;28;19916;-75
2022/01/26 08:07:54;;;;;;;;;;;7.60;96.10;;;;;;5028941;28;19967;-76
2022/01/26 08:10:20;;;;;;;;;;;7.50;96.10;;;;;;5029730;28;20241;-75
2022/01/26 08:12:45;;;;;;;;;;;7.50;96.20;;;;;;5029125;28;20032;-77
2022/01/26 08:15:11;;;;;;;;;;;7.50;96.20;;;;;;5029162;28;19920;-75
2022/01/26 08:17:37;;;;;;;;;;;7.50;96.30;;;;;;5029665;28;20304;-75
2022/01/26 08:20:05;;;;;;;;;;;7.50;96.50;;;;;;5027827;28;19905;-76
2022/01/26 08:22:31;;;;;;;;;;;7.50;96.30;;;;;;5029362;28;19909;-75
2022/01/26 08:24:57;;;;;;;;;;;7.50;96.30;;;;;;5029812;28;19959;-74
2022/01/26 08:27:25;;;;;;;;;;;7.50;96.50;;;;;;5028441;28;20335;-75
2022/01/26 08:29:55;;;;;;;;;;;7.50;96.20;;;;;;5012269;28;19931;-76
2022/01/26 08:32:21;;;;;;;;;;;7.40;96.20;;;;;;5029306;28;19909;-76
2022/01/26 08:34:46;;;;;;;;;;;7.50;96.30;;;;;;5028023;28;19912;-76
2022/01/26 08:37:12;;;;;;;;;;;7.40;96.20;;;;;;5028477;28;19929;-75
2022/01/26 08:39:38;;;;;;;;;;;7.40;96.20;;;;;;5029146;28;19990;-76
2022/01/26 08:42:05;;;;;;;;;;;7.40;96.20;;;;;;5027983;28;20270;-75
2022/01/26 08:44:31;;;;;;;;;;;7.40;96.30;;;;;;5029292;28;19909;-75
2022/01/26 08:46:57;;;;;;;;;;;7.40;96.30;;;;;;5027704;28;20348;-75
2022/01/26 08:49:24;;;;;;;;;;;7.50;96.30;;;;;;5029094;28;19916;-75
2022/01/26 08:51:51;;;;;;;;;;;7.50;96.30;;;;;;5028942;28;19920;-75
2022/01/26 08:54:19;;;;;;;;;;;7.50;96.30;;;;;;5028567;28;19960;-75
2022/01/26 08:56:46;;;;;;;;;;;7.60;96.30;;;;;;5027349;28;19932;-76
2022/01/26 08:59:12;;;;;;;;;;;7.60;96.30;;;;;;5028270;28;19909;-76
2022/01/26 09:01:37;;;;;;;;;;;7.60;96.30;;;;;;5026994;28;19913;-76
2022/01/26 09:04:03;;;;;;;;;;;7.70;96.30;;;;;;5028602;28;19915;-75
2022/01/26 09:06:28;;;;;;;;;;;7.70;96.40;;;;;;5028612;28;20282;-76
2022/01/26 09:09:02;;;;;;;;;;;7.80;96.40;;;;;;5028086;28;19906;-76
2022/01/26 09:11:27;;;;;;;;;;;7.90;96.40;;;;;;5012571;28;20251;-76
2022/01/26 09:13:56;;;;;;;;;;;8.00;96.40;;;;;;5028986;28;19912;-76
2022/01/26 09:16:24;;;;;;;;;;;8.10;96.40;;;;;;5027404;28;20327;-75
2022/01/26 09:18:53;;;;;;;;;;;8.30;96.40;;;;;;5027366;28;20323;-76
2022/01/26 09:21:19;;;;;;;;;;;8.40;96.30;;;;;;5027813;28;19909;-75
2022/01/26 09:23:44;;;;;;;;;;;8.50;96.30;;;;;;5027327;28;19916;-74
2022/01/26 09:26:10;;;;;;;;;;;8.80;96.60;;;;;;5028822;28;19913;-76
2022/01/26 09:28:36;;;;;;;;;;;9.30;96.90;;;;;;5028382;28;19905;-76
2022/01/26 09:31:02;;;;;;;;;;;9.80;96.60;;;;;;5028212;28;19913;-77
2022/01/26 09:33:27;;;;;;;;;;;10.30;96.40;;;;;;5028251;28;19916;-77
2022/01/26 09:35:53;;;;;;;;;;;10.90;96.40;;;;;;5009995;28;20351;-75
2022/01/26 09:38:19;;;;;;;;;;;11.50;96.10;;;;;;5026411;28;20245;-75
2022/01/26 09:40:48;;;;;;;;;;;12.00;95.40;;;;;;5026840;28;19936;-75
2022/01/26 09:43:14;;;;;;;;;;;12.40;94.70;;;;;;5027885;28;20334;-75
2022/01/26 09:45:40;;;;;;;;;;;12.80;94.60;;;;;;5010545;28;19951;-74
2022/01/26 09:48:06;;;;;;;;;;;13.00;93.90;;;;;;5010238;28;19956;-76
2022/01/26 09:50:32;;;;;;;;;;;13.20;93.70;;;;;;5028314;28;19921;-76
2022/01/26 09:52:58;;;;;;;;;;;13.30;93.10;;;;;;5027809;28;19919;-76
2022/01/26 09:55:24;;;;;;;;;;;13.40;93.30;;;;;;5027571;28;20374;-76
2022/01/26 09:57:57;;;;;;;;;;;13.70;93.10;;;;;;5027903;28;19917;-76
2022/01/26 10:00:22;;;;;;;;;;;14.00;92.50;;;;;;5026584;28;19979;-73
2022/01/26 10:02:55;;;;;;;;;;;14.20;92.20;;;;;;5009518;28;20360;-77
2022/01/26 10:05:21;;;;;;;;;;;14.50;91.70;;;;;;5025108;28;19905;-77
2022/01/26 10:07:53;;;;;;;;;;;14.50;90.90;;;;;;5026699;28;19911;-77
2022/01/26 10:15:25;;;;;;;;;;;14.60;90.90;;;;;;5026277;28;19936;-76
2022/01/26 10:16:13;;;;;;;;;;;14.90;89.70;;;;;;5028129;28;19916;-75
2022/01/26 10:18:39;;;;;;;;;;;15.10;89.60;;;;;;5027781;28;19909;-76
2022/01/26 10:21:06;;;;;;;;;;;15.20;88.40;;;;;;5045119;28;19904;-76
2022/01/26 10:23:36;;;;;;;;;;;15.20;87.30;;;;;;5049349;28;19913;-75
2022/01/26 10:26:04;;;;;;;;;;;15.30;86.70;;;;;;5048984;28;19909;-77
2022/01/26 10:28:48;;;;;;;;;;;15.40;87.20;;;;;;5044609;28;19909;-75
2022/01/26 10:31:15;;;;;;;;;;;15.50;87.20;;;;;;5038117;28;19908;-75
2022/01/26 10:33:51;;;;;;;;;;;15.60;86.10;;;;;;5048844;28;19911;-76
2022/01/26 10:36:16;;;;;;;;;;;15.80;85.90;;;;;;5048734;28;19909;-74
2022/01/26 10:38:43;;;;;;;;;;;15.90;84.90;;;;;;5047536;28;19920;-72
2022/01/26 10:41:28;;;;;;;;;;;15.90;83.50;;;;;;5047237;28;19963;-75
2022/01/26 10:43:56;;;;;;;;;;;15.90;83.00;;;;;;5047540;28;20053;-75
2022/01/26 10:46:30;;;;;;;;;;;15.90;81.80;;;;;;5048370;28;19913;-75
2022/01/26 10:51:54;;;;;;;;;;;16.00;80.70;;;;;;5048797;28;19915;-74
2022/01/26 10:54:37;;;;;;;;;;;16.10;81.00;;;;;;5049208;28;19904;-76
2022/01/26 10:57:04;;;;;;;;;;;16.30;80.30;;;;;;5048551;28;19959;-76
2022/01/26 10:59:30;;;;;;;;;;;16.40;79.30;;;;;;5046085;28;20575;-75
2022/01/26 11:01:59;;;;;;;;;;;16.50;77.80;;;;;;5028609;28;19936;-77
2022/01/26 11:04:25;;;;;;;;;;;16.50;77.50;;;;;;5011173;28;19913;-76
2022/01/26 11:06:52;;;;;;;;;;;16.60;77.80;;;;;;5028049;28;20052;-75
2022/01/26 11:09:24;;;;;;;;;;;16.90;78.80;;;;;;5029985;28;19996;-77
2022/01/26 11:11:59;;;;;;;;;;;17.20;78.70;;;;;;5027320;28;19913;-75
2022/01/26 11:14:25;;;;;;;;;;;17.50;77.90;;;;;;5028622;28;19920;-77
2022/01/26 11:17:11;;;;;;;;;;;17.50;77.10;;;;;;5027096;28;20334;-78
2022/01/26 11:19:44;;;;;;;;;;;17.60;76.50;;;;;;5024089;28;19908;-77
2022/01/26 11:22:10;;;;;;;;;;;17.40;74.30;;;;;;5025100;28;19905;-76
2022/01/26 11:24:43;;;;;;;;;;;17.10;73.90;;;;;;5027917;28;19917;-75
2022/01/26 11:27:09;;;;;;;;;;;17.00;74.70;;;;;;5027218;28;19905;-74
2022/01/26 11:29:37;;;;;;;;;;;17.10;74.40;;;;;;5025479;28;19905;-76
2022/01/26 11:32:16;;;;;;;;;;;17.10;74.70;;;;;;5028533;28;20335;-76
2022/01/26 11:34:44;;;;;;;;;;;17.20;73.90;;;;;;5030090;28;19936;-76
2022/01/26 11:38:02;;;;;;;;;;;17.30;73.50;;;;;;5028132;28;19948;-74
2022/01/26 11:45:34;;;;;;;;;;;17.00;71.30;;;;;;5030867;28;19905;-75
2022/01/26 11:48:02;;;;;;;;;;;16.80;71.30;;;;;;5023671;28;19968;-75
2022/01/26 11:50:29;;;;;;;;;;;16.70;71.10;;;;;;5031228;28;19958;-77
2022/01/26 11:52:59;;;;;;;;;;;16.60;71.30;;;;;;5031416;28;19920;-75
2022/01/26 11:55:30;;;;;;;;;;;16.70;71.90;;;;;;5032229;28;19985;-75
2022/01/26 11:58:05;;;;;;;;;;;16.90;72.20;;;;;;5029823;28;19909;-74
2022/01/26 12:00:46;;;;;;;;;;;17.10;72.60;;;;;;5029263;28;19909;-75
2022/01/26 12:03:22;;;;;;;;;;;17.30;73.00;;;;;;5031152;28;19995;-76
2022/01/26 12:05:49;;;;;;;;;;;17.40;71.50;;;;;;5030986;28;19905;-76
2022/01/26 12:08:25;;;;;;;;;;;17.20;70.60;;;;;;5030016;28;19984;-77
2022/01/26 12:11:02;;;;;;;;;;;17.00;70.50;;;;;;5030137;28;20084;-76
2022/01/26 12:13:32;;;;;;;;;;;17.00;70.30;;;;;;5029542;28;19912;-76
2022/01/26 12:16:07;;;;;;;;;;;17.00;70.00;;;;;;5029803;28;20275;-77
2022/01/26 12:18:51;;;;;;;;;;;17.00;70.80;;;;;;5015175;28;19974;-76
2022/01/26 12:35:20;;;;;;;;;;;16.20;69.60;;;;;;5029844;28;19901;-76
2022/01/26 12:38:00;;;;;;;;;;;16.00;70.10;;;;;;5028982;28;19909;-76
2022/01/26 12:43:32;;;;;;;;;;;16.10;69.50;;;;;;5029005;28;19978;-75
2022/01/26 12:45:58;;;;;;;;;;;16.10;69.50;;;;;;5028626;28;19945;-74
2022/01/26 12:48:34;;;;;;;;;;;16.20;70.50;;;;;;5029912;28;20429;-75
2022/01/26 12:51:11;;;;;;;;;;;16.30;71.00;;;;;;5028338;28;19916;-76
2022/01/26 12:53:37;;;;;;;;;;;16.30;69.80;;;;;;5028507;28;19912;-74
2022/01/26 12:56:05;;;;;;;;;;;15.90;69.20;;;;;;5010751;28;19917;-75
2022/01/26 12:58:32;;;;;;;;;;;15.50;68.70;;;;;;5029953;28;19916;-76
2022/01/26 13:01:07;;;;;;;;;;;15.20;69.20;;;;;;5029689;28;19970;-76
2022/01/26 13:03:34;;;;;;;;;;;14.80;69.40;;;;;;5029281;28;19905;-75
2022/01/26 13:06:06;;;;;;;;;;;14.50;69.90;;;;;;5028070;28;19912;-75
2022/01/26 13:08:52;;;;;;;;;;;14.30;70.20;;;;;;5029789;28;19920;-76
2022/01/26 13:11:21;;;;;;;;;;;14.10;70.50;;;;;;5029427;28;20709;-77
2022/01/26 13:13:47;;;;;;;;;;;13.90;71.10;;;;;;5028191;28;19905;-76
2022/01/26 13:16:13;;;;;;;;;;;13.80;71.50;;;;;;5029919;28;19988;-74
2022/01/26 13:19:09;;;;;;;;;;;13.70;71.80;;;;;;5029930;28;19995;-77
2022/01/26 13:24:35;;;;;;;;;;;13.70;72.30;;;;;;5026523;28;19905;-75
2022/01/26 13:27:10;;;;;;;;;;;13.70;72.50;;;;;;5015582;28;19905;-77
2022/01/26 13:29:49;;;;;;;;;;;13.70;72.50;;;;;;5027907;28;19931;-76
2022/01/26 13:38:27;;;;;;;;;;;13.60;73.00;;;;;;5029540;28;20303;-75
2022/01/26 13:49:16;;;;;;;;;;;13.30;73.50;;;;;;5029265;28;19928;-76
2022/01/26 13:59:47;;;;;;;;;;;13.00;74.20;;;;;;5028158;28;19948;-76
2022/01/26 14:02:13;;;;;;;;;;;12.90;74.50;;;;;;5027684;28;19917;-79
2022/01/26 14:04:42;;;;;;;;;;;12.90;74.80;;;;;;5028937;28;19913;-81
2022/01/26 14:07:07;;;;;;;;;;;12.90;75.00;;;;;;5024088;28;19908;-79
2022/01/26 14:10:05;;;;;;;;;;;12.80;75.00;;;;;;5028165;28;19915;-82
2022/01/26 14:12:33;;;;;;;;;;;12.80;75.40;;;;;;5026732;28;19909;-75
2022/01/26 14:14:59;;;;;;;;;;;12.80;75.60;;;;;;5028872;28;19992;-74
2022/01/26 14:18:00;;;;;;;;;;;12.90;75.80;;;;;;5028647;28;19909;-76
2022/01/26 14:20:19;;;;;;;;;;;12.90;76.00;;;;;;5026313;28;20031;-76
2022/01/26 14:25:38;;;;;;;;;;;12.80;75.70;;;;;;5013053;28;19996;-75
2022/01/26 14:28:08;;;;;;;;;;;12.70;76.00;;;;;;5028871;28;19955;-76
2022/01/26 14:30:47;;;;;;;;;;;12.60;76.40;;;;;;5011729;28;20324;-77
2022/01/26 14:33:34;;;;;;;;;;;12.50;76.80;;;;;;5025052;28;19908;-76
2022/01/26 14:36:21;;;;;;;;;;;12.60;77.20;;;;;;5028541;28;19920;-74
2022/01/26 15:50:52;;;;;;;;;;;11.90;81.70;;;;;;5032009;28;19935;-76
2022/01/26 15:58:50;;;;;;;;;;;11.90;82.20;;;;;;5031909;28;20269;-73
2022/01/26 16:36:47;;;;;;;;;;;11.60;85.30;;;;;;5031972;28;19963;-78
2022/01/26 16:39:02;;;;;;;;;;;11.50;85.40;;;;;;5032511;28;20283;-74
2022/01/26 17:55:19;;;;;;;;;;;11.10;90.50;;;;;;4987036;28;19965;-76
2022/01/26 18:16:40;;;;;;;;;;;11.10;91.10;;;;;;5028811;28;19931;-74
2022/01/26 18:25:53;;;;;;;;;;;11.10;91.30;;;;;;5028609;28;20020;-74
2022/01/26 18:33:05;;;;;;;;;;;11.10;91.60;;;;;;5028930;28;19984;-75
2022/01/26 18:51:36;;;;;;;;;;;11.20;92.20;;;;;;5013280;28;20247;-75
2022/01/26 18:54:02;;;;;;;;;;;11.20;92.40;;;;;;5012841;28;19913;-76
2022/01/26 18:56:28;;;;;;;;;;;11.20;92.50;;;;;;5028105;28;20324;-75
2022/01/26 18:58:54;;;;;;;;;;;11.20;92.60;;;;;;5013034;28;19936;-76
2022/01/26 19:01:19;;;;;;;;;;;11.20;92.60;;;;;;5028047;28;19915;-73
2022/01/26 19:03:45;;;;;;;;;;;11.20;92.70;;;;;;5012759;28;19905;-74
2022/01/26 19:06:10;;;;;;;;;;;11.20;92.70;;;;;;5025451;28;19960;-76
2022/01/26 19:08:38;;;;;;;;;;;11.20;92.80;;;;;;5032103;28;19909;-75
2022/01/26 19:11:04;;;;;;;;;;;11.20;92.80;;;;;;5032004;28;19920;-76
2022/01/26 19:13:31;;;;;;;;;;;11.20;92.90;;;;;;5031765;28;19905;-74
2022/01/26 19:16:03;;;;;;;;;;;11.20;92.90;;;;;;5031356;28;19935;-75
2022/01/26 19:21:23;;;;;;;;;;;11.30;93.00;;;;;;5029580;28;19974;-75
2022/01/26 19:24:04;;;;;;;;;;;11.30;93.00;;;;;;5029256;28;19913;-74
2022/01/26 19:26:36;;;;;;;;;;;11.30;93.10;;;;;;5029467;28;19920;-75
2022/01/26 19:29:21;;;;;;;;;;;11.30;93.10;;;;;;5028793;28;20378;-75
2022/01/26 19:53:10;;;;;;;;;;;11.30;93.70;;;;;;5029808;28;19912;-75
2022/01/26 19:55:35;;;;;;;;;;;11.30;93.80;;;;;;5030273;28;19905;-75
2022/01/26 19:58:01;;;;;;;;;;;11.30;93.80;;;;;;5029837;28;20039;-75
2022/01/26 20:00:28;;;;;;;;;;;11.30;93.90;;;;;;5028880;28;20364;-75
2022/01/26 20:02:54;;;;;;;;;;;11.30;94.00;;;;;;5030156;28;19956;-75
2022/01/26 20:05:19;;;;;;;;;;;11.30;94.00;;;;;;5029899;28;20414;-75
2022/01/26 20:07:50;;;;;;;;;;;11.40;94.20;;;;;;5029068;28;19909;-75
2022/01/26 20:10:23;;;;;;;;;;;11.40;94.20;;;;;;5028985;28;19909;-76
2022/01/26 20:12:58;;;;;;;;;;;11.40;94.40;;;;;;5030332;28;19921;-75
2022/01/26 20:15:25;;;;;;;;;;;11.40;94.50;;;;;;5013314;28;19913;-75
2022/01/26 20:17:51;;;;;;;;;;;11.40;94.70;;;;;;5011944;28;20382;-75
2022/01/26 20:20:17;;;;;;;;;;;11.40;94.80;;;;;;5029034;28;19917;-75
2022/01/26 20:22:43;;;;;;;;;;;11.40;94.90;;;;;;5029600;28;19988;-75
2022/01/26 20:25:11;;;;;;;;;;;11.40;94.90;;;;;;5029689;28;19909;-74
2022/01/26 20:27:37;;;;;;;;;;;11.50;95.10;;;;;;5029293;28;20374;-75
2022/01/26 20:30:11;;;;;;;;;;;11.40;95.10;;;;;;5029144;28;20004;-76
2022/01/26 20:32:37;;;;;;;;;;;11.40;95.10;;;;;;5027845;28;19927;-75
2022/01/26 20:35:03;;;;;;;;;;;11.40;95.30;;;;;;5027722;28;20263;-72
2022/01/26 20:37:29;;;;;;;;;;;11.50;95.40;;;;;;5029116;28;19909;-75
2022/01/26 20:39:55;;;;;;;;;;;11.50;95.50;;;;;;5029292;28;19909;-76
2022/01/26 20:42:21;;;;;;;;;;;11.50;95.60;;;;;;5028902;28;19963;-75
2022/01/26 20:44:47;;;;;;;;;;;11.40;95.90;;;;;;5027751;28;20356;-75
2022/01/26 20:47:12;;;;;;;;;;;11.40;95.80;;;;;;5027833;28;19946;-75
2022/01/26 20:49:38;;;;;;;;;;;11.40;95.80;;;;;;5027949;28;19945;-75
2022/01/26 20:52:03;;;;;;;;;;;11.50;95.90;;;;;;5027990;28;19916;-75
2022/01/26 20:54:29;;;;;;;;;;;11.50;96.00;;;;;;5027973;28;19909;-75
2022/01/26 20:56:55;;;;;;;;;;;11.50;96.00;;;;;;5029582;28;19915;-75
2022/01/26 20:59:21;;;;;;;;;;;11.50;96.10;;;;;;5027992;28;19925;-75
2022/01/26 21:01:46;;;;;;;;;;;11.50;96.20;;;;;;5027798;28;19959;-76
2022/01/26 21:04:12;;;;;;;;;;;11.50;96.20;;;;;;5028220;28;19917;-76
2022/01/26 21:06:38;;;;;;;;;;;11.50;96.30;;;;;;5029654;28;19905;-75
2022/01/26 21:09:03;;;;;;;;;;;11.60;96.30;;;;;;5029388;28;20266;-75
2022/01/26 21:11:29;;;;;;;;;;;11.60;96.40;;;;;;5029121;28;19905;-75
2022/01/26 21:13:55;;;;;;;;;;;11.60;96.50;;;;;;5028969;28;19905;-75
2022/01/26 21:16:22;;;;;;;;;;;11.60;96.60;;;;;;5029116;28;19905;-75
2022/01/26 21:18:47;;;;;;;;;;;11.60;96.70;;;;;;5027855;28;19909;-75
2022/01/26 21:21:13;;;;;;;;;;;11.50;96.80;;;;;;5028833;28;19943;-75
2022/01/26 21:23:39;;;;;;;;;;;11.50;96.90;;;;;;5027709;28;20042;-75
2022/01/26 21:26:05;;;;;;;;;;;11.50;97.00;;;;;;5027457;28;19912;-76
2022/01/26 21:28:31;;;;;;;;;;;11.50;97.20;;;;;;5028802;28;20417;-76
2022/01/26 21:30:57;;;;;;;;;;;11.50;97.30;;;;;;5028799;28;20275;-75
2022/01/26 21:33:23;;;;;;;;;;;11.50;97.50;;;;;;5028659;28;19914;-75
2022/01/26 21:35:49;;;;;;;;;;;11.50;97.60;;;;;;5027441;28;19909;-75
2022/01/26 21:38:15;;;;;;;;;;;11.50;97.70;;;;;;5027153;28;20009;-75
2022/01/26 21:40:41;;;;;;;;;;;11.50;97.80;;;;;;5010899;28;19909;-74
2022/01/26 21:43:07;;;;;;;;;;;11.50;97.90;;;;;;5028387;28;19919;-76